createdAt,value
2018-12-15T00:04:20.579Z,15.30
2018-12-15T00:09:41.571Z,14.70
2018-12-15T00:14:43.887Z,13.03
2018-12-15T00:19:46.145Z,13.03
2018-12-15T00:24:48.609Z,12.70
2018-12-15T00:29:50.913Z,12.67
2018-12-15T00:34:53.163Z,11.57
2018-12-15T00:39:55.529Z,12.20
2018-12-15T00:44:57.815Z,13.67
2018-12-15T00:50:00.045Z,18.30
2018-12-15T00:55:02.526Z,20.53
2018-12-15T01:00:05.087Z,20.27
2018-12-15T01:05:07.418Z,19.73
2018-12-15T01:10:09.645Z,21.00
2018-12-15T01:15:12.004Z,21.07
2018-12-15T01:20:14.281Z,21.30
2018-12-15T01:25:16.556Z,20.33
2018-12-15T01:30:18.870Z,20.30
2018-12-15T01:35:21.145Z,20.20
2018-12-15T01:40:23.383Z,20.80
2018-12-15T01:45:25.600Z,22.10
2018-12-15T01:50:27.810Z,19.80
2018-12-15T01:55:30.205Z,23.63
2018-12-15T02:00:32.483Z,23.80
2018-12-15T02:05:34.675Z,23.37
2018-12-15T02:10:37.073Z,21.67
2018-12-15T02:15:39.375Z,23.03
2018-12-15T02:20:41.847Z,23.20
2018-12-15T02:25:44.225Z,23.73
2018-12-15T02:30:47.697Z,23.03
2018-12-15T02:35:50.371Z,22.60
2018-12-15T02:40:52.593Z,23.60
2018-12-15T02:45:54.913Z,22.77
2018-12-15T02:50:57.169Z,24.57
2018-12-15T02:55:59.426Z,23.43
2018-12-15T03:01:03.151Z,22.17
2018-12-15T03:06:06.595Z,24.30
2018-12-15T03:11:08.822Z,23.03
2018-12-15T03:16:11.080Z,21.07
2018-12-15T03:21:13.357Z,22.20
2018-12-15T03:26:15.567Z,22.00
2018-12-15T03:31:17.889Z,21.83
2018-12-15T03:36:20.167Z,21.70
2018-12-15T03:41:22.517Z,20.50
2018-12-15T03:46:25.797Z,20.13
2018-12-15T03:51:28.149Z,20.23
2018-12-15T03:56:31.125Z,19.67
2018-12-15T04:01:33.634Z,20.23
2018-12-15T04:06:35.951Z,20.10
2018-12-15T04:11:38.202Z,17.60
2018-12-15T04:16:40.661Z,17.43
2018-12-15T04:21:42.887Z,16.27
2018-12-15T04:26:45.124Z,18.13
2018-12-15T04:31:49.432Z,17.60
2018-12-15T04:36:51.632Z,17.13
2018-12-15T04:41:53.843Z,16.83
2018-12-15T04:46:56.538Z,16.87
2018-12-15T04:51:58.721Z,16.37
2018-12-15T04:57:00.913Z,15.93
2018-12-15T05:02:03.419Z,14.40
2018-12-15T05:07:05.744Z,14.27
2018-12-15T05:12:08.055Z,13.80
2018-12-15T05:17:10.475Z,13.73
2018-12-15T05:22:13.238Z,12.80
2018-12-15T05:27:15.801Z,13.10
2018-12-15T05:32:18.077Z,13.77
2018-12-15T05:37:20.351Z,12.37
2018-12-15T05:42:22.594Z,13.77
2018-12-15T05:47:24.840Z,14.17
2018-12-15T05:52:27.213Z,14.10
2018-12-15T05:57:29.471Z,14.93
2018-12-15T06:02:32.159Z,15.60
2018-12-15T06:07:34.562Z,13.73
2018-12-15T06:12:36.928Z,14.37
2018-12-15T06:17:39.519Z,15.83
2018-12-15T06:22:41.724Z,14.97
2018-12-15T06:27:44.079Z,14.43
2018-12-15T06:32:46.420Z,15.17
2018-12-15T06:37:48.779Z,14.57
2018-12-15T06:42:53.249Z,15.20
2018-12-15T06:47:55.451Z,15.00
2018-12-15T06:52:58.504Z,14.43
2018-12-15T06:58:00.825Z,14.57
2018-12-15T07:03:03.062Z,15.40
2018-12-15T07:08:05.343Z,15.60
2018-12-15T07:13:07.685Z,15.17
2018-12-15T07:18:11.232Z,14.93
2018-12-15T07:23:13.549Z,14.80
2018-12-15T07:28:15.917Z,15.33
2018-12-15T07:33:18.158Z,15.47
2018-12-15T07:38:20.430Z,15.87
2018-12-15T07:43:22.703Z,15.03
2018-12-15T07:48:24.978Z,15.97
2018-12-15T07:53:27.467Z,15.77
2018-12-15T07:58:29.776Z,15.53
2018-12-15T08:03:32.023Z,14.93
2018-12-15T08:08:34.347Z,14.27
2018-12-15T08:13:36.848Z,13.63
2018-12-15T08:18:39.118Z,13.73
2018-12-15T08:23:41.791Z,11.37
2018-12-15T08:28:44.191Z,11.43
2018-12-15T08:33:46.785Z,13.20
2018-12-15T08:38:49.164Z,12.43
2018-12-15T08:43:52.014Z,12.90
2018-12-15T08:48:54.249Z,12.20
2018-12-15T08:53:56.510Z,13.97
2018-12-15T08:58:58.748Z,12.13
2018-12-15T09:04:00.994Z,13.77
2018-12-15T09:09:05.409Z,13.50
2018-12-15T09:14:07.842Z,13.80
2018-12-15T09:19:11.386Z,12.47
2018-12-15T09:24:14.054Z,13.87
2018-12-15T09:29:17.168Z,12.87
2018-12-15T09:34:19.846Z,12.10
2018-12-15T09:39:22.118Z,12.83
2018-12-15T09:44:24.358Z,13.00
2018-12-15T09:49:26.729Z,12.30
2018-12-15T09:54:29.125Z,12.50
2018-12-15T09:59:33.109Z,12.30
2018-12-15T10:04:35.468Z,11.47
2018-12-15T10:09:38.112Z,11.67
2018-12-15T10:14:40.484Z,11.13
2018-12-15T10:19:43.191Z,11.00
2018-12-15T10:24:45.418Z,11.70
2018-12-15T10:29:53.553Z,11.47
2018-12-15T10:34:55.961Z,10.77
2018-12-15T10:39:58.377Z,10.77
2018-12-15T10:45:00.647Z,11.00
2018-12-15T10:50:03.602Z,10.37
2018-12-15T10:55:09.308Z,11.43
2018-12-15T11:00:19.052Z,10.73
2018-12-15T11:05:23.723Z,10.50
2018-12-15T11:10:26.045Z,9.73
2018-12-15T11:15:28.371Z,9.03
2018-12-15T11:20:30.621Z,10.27
2018-12-15T11:25:32.888Z,10.00
2018-12-15T11:30:35.279Z,10.37
2018-12-15T11:35:37.502Z,10.40
2018-12-15T11:40:40.361Z,10.30
2018-12-15T11:45:42.729Z,9.73
2018-12-15T11:50:45.003Z,11.03
2018-12-15T11:55:47.229Z,11.50
2018-12-15T12:00:49.497Z,12.47
2018-12-15T12:05:51.798Z,12.07
2018-12-15T12:10:55.194Z,11.70
2018-12-15T12:15:57.717Z,11.53
2018-12-15T12:21:00.793Z,12.80
2018-12-15T12:26:03.093Z,13.17
2018-12-15T12:31:05.389Z,13.43
2018-12-15T12:36:07.638Z,12.90
2018-12-15T12:41:11.005Z,12.43
2018-12-15T12:46:15.065Z,12.23
2018-12-15T12:51:17.741Z,12.63
2018-12-15T12:56:22.842Z,12.77
2018-12-15T13:01:25.259Z,13.00
2018-12-15T13:06:27.508Z,13.93
2018-12-15T13:11:32.806Z,13.53
2018-12-15T13:16:35.134Z,14.03
2018-12-15T13:21:37.527Z,13.53
2018-12-15T13:26:39.864Z,15.23
2018-12-15T13:31:42.538Z,13.17
2018-12-15T13:36:45.022Z,13.60
2018-12-15T13:41:47.814Z,12.07
2018-12-15T13:46:50.676Z,14.43
2018-12-15T13:51:53.275Z,15.93
2018-12-15T13:56:55.587Z,15.93
2018-12-15T14:01:57.983Z,16.43
2018-12-15T14:07:00.289Z,15.57
2018-12-15T14:12:02.548Z,16.60
2018-12-15T14:17:04.874Z,18.13
2018-12-15T14:22:07.229Z,17.20
2018-12-15T14:27:09.502Z,17.47
2018-12-15T14:32:11.738Z,16.93
2018-12-15T14:37:13.961Z,17.13
2018-12-15T14:42:16.261Z,16.93
2018-12-15T14:47:18.591Z,17.73
2018-12-15T14:52:20.819Z,16.63
2018-12-15T14:57:24.966Z,16.60
2018-12-15T15:02:27.203Z,16.77
2018-12-15T15:07:29.489Z,17.03
2018-12-15T15:12:31.709Z,18.03
2018-12-15T15:17:34.038Z,16.53
2018-12-15T15:22:36.437Z,17.00
2018-12-15T15:27:38.697Z,17.77
2018-12-15T15:32:40.972Z,17.03
2018-12-15T15:37:43.223Z,16.23
2018-12-15T15:42:45.513Z,17.20
2018-12-15T15:47:47.834Z,16.77
2018-12-15T15:52:50.119Z,17.13
2018-12-15T15:57:52.463Z,18.57
2018-12-15T16:02:55.764Z,17.90
2018-12-15T16:07:58.014Z,18.77
2018-12-15T16:13:00.267Z,17.53
2018-12-15T16:18:02.714Z,18.17
2018-12-15T16:23:05.094Z,19.00
2018-12-15T16:28:07.564Z,17.67
2018-12-15T16:33:09.821Z,18.30
2018-12-15T16:38:12.149Z,18.67
2018-12-15T16:43:14.392Z,18.73
2018-12-15T16:48:16.846Z,17.90
2018-12-15T16:53:19.088Z,18.63
2018-12-15T16:58:21.359Z,18.07
2018-12-15T17:03:30.388Z,18.37
2018-12-15T17:08:28.958Z,19.23
2018-12-15T17:13:31.212Z,19.30
2018-12-15T17:18:33.567Z,19.43
2018-12-15T17:23:37.147Z,19.33
2018-12-15T17:28:39.464Z,18.70
2018-12-15T17:33:41.727Z,18.40
2018-12-15T17:38:44.105Z,18.07
2018-12-15T17:43:46.354Z,20.10
2018-12-15T17:48:48.749Z,19.70
2018-12-15T17:53:51.102Z,18.87
2018-12-15T17:58:53.389Z,19.40
2018-12-15T18:03:55.719Z,19.93
2018-12-15T18:08:57.992Z,20.47
2018-12-15T18:14:00.238Z,19.77
2018-12-15T18:19:02.523Z,21.00
2018-12-15T18:24:04.800Z,20.37
2018-12-15T18:29:07.749Z,20.77
2018-12-15T18:34:09.998Z,23.07
2018-12-15T18:39:12.561Z,23.77
2018-12-15T18:44:14.813Z,23.47
2018-12-15T18:49:17.070Z,23.90
2018-12-15T18:54:19.389Z,24.50
2018-12-15T18:59:22.037Z,25.37
2018-12-15T19:04:24.281Z,23.47
2018-12-15T19:09:26.586Z,24.00
2018-12-15T19:14:28.909Z,23.60
2018-12-15T19:19:31.162Z,23.57
2018-12-15T19:24:33.421Z,24.73
2018-12-15T19:29:35.734Z,24.47
2018-12-15T19:34:37.988Z,24.00
2018-12-15T19:39:40.253Z,24.03
2018-12-15T19:44:42.556Z,24.43
2018-12-15T19:49:44.818Z,24.47
2018-12-15T19:54:47.081Z,24.50
2018-12-15T19:59:49.461Z,22.87
2018-12-15T20:04:51.855Z,23.17
2018-12-15T20:09:54.071Z,24.83
2018-12-15T20:14:56.365Z,23.37
2018-12-15T20:19:58.646Z,24.03
2018-12-15T20:25:00.944Z,25.00
2018-12-15T20:30:04.089Z,24.63
2018-12-15T20:35:06.894Z,23.73
2018-12-15T20:40:09.383Z,25.37
2018-12-15T20:45:11.788Z,24.17
2018-12-15T20:50:14.222Z,25.70
2018-12-15T20:55:16.537Z,25.80
2018-12-15T21:00:18.898Z,24.20
2018-12-15T21:05:21.438Z,25.30
2018-12-15T21:10:23.677Z,25.10
2018-12-15T21:15:28.802Z,24.37
2018-12-15T21:20:31.047Z,24.60
2018-12-15T21:25:34.679Z,25.30
2018-12-15T21:30:36.946Z,24.53
2018-12-15T21:35:39.206Z,25.67
2018-12-15T21:40:41.535Z,27.57
2018-12-15T21:45:43.817Z,24.83
2018-12-15T21:50:46.038Z,24.10
2018-12-15T21:55:48.332Z,26.87
2018-12-15T22:00:51.677Z,23.87
2018-12-15T22:05:54.036Z,25.10
2018-12-15T22:10:56.431Z,23.17
2018-12-15T22:15:58.714Z,24.53
2018-12-15T22:21:01.140Z,25.80
2018-12-15T22:26:03.630Z,25.27
2018-12-15T22:31:05.904Z,24.27
2018-12-15T22:36:08.351Z,25.27
2018-12-15T22:41:10.670Z,24.00
2018-12-15T22:46:13.057Z,23.07
2018-12-15T22:51:15.364Z,24.17
2018-12-15T22:56:24.545Z,23.60
2018-12-15T23:01:28.885Z,22.73
2018-12-15T23:06:39.927Z,22.57
2018-12-15T23:11:42.204Z,23.03
2018-12-15T23:16:44.615Z,22.40
2018-12-15T23:21:46.846Z,22.57
2018-12-15T23:26:49.126Z,23.20
2018-12-15T23:31:51.432Z,22.43
2018-12-15T23:36:53.702Z,21.80
2018-12-15T23:41:56.076Z,22.60
2018-12-15T23:46:58.318Z,23.80
2018-12-15T23:52:00.551Z,22.47
2018-12-15T23:57:02.971Z,22.63
